India Meteorological Department
Airport METARs
Date : 14-12-2019
Sl. # Airport METAR
1 Agartala VEAT 141400Z 00000KT 3500 BR NSC 18/17 Q1017 NOSIG=
2 Ahmedabad VAAH 141500Z 02002KT 3500 HZ NSC 19/13 Q1017 NOSIG=
3 Allahabad VEAB 141430Z 00000KT 2000 BR BKN015 SCT020 BKN090 17/17 Q1019 NOSIG=
4 Amritsar VIAR 141500Z 00000KT 1500 R34/2000 BR SCT035 SCT090 12/10 Q1022 NOSIG=
5 Bangalore VOBL 141500Z 11007KT 5000 BR SCT010 SCT012 BKN080 20/20 Q1020 NOSIG=
6 Baroda VABO 141500Z 02005KT 6000 NSC 21/13 Q1016 NOSIG=
7 Bhaunagar VABV 141400Z 35004KT 4000 FU NSC 23/17 Q1016=
8 Bhopal VABP 141500Z 02004KT 3500 HZ NSC 18/16 Q1018 NOSIG=
9 Bhubaneswar VEBS 141500Z 15003KT 2500 BR FEW100 23/20 Q1016 NOSIG=
10 Chennai VOMM 141500Z 00000KT 4000 BR SCT020 BKN100 26/23 Q1015 NOSIG=
11 Coimbatore VOCB 141500Z 00000KT 4000 BR SCT012 OVC080 23/21 Q1017 TEMPO 3000 -RA=
12 Colombo VCBI 141440Z 03004KT 9000 VCTS SCT017 FEW019CB 28/26 Q1012 NOSIG RMK S=
13 Delhi VIDP 141500Z 31004KT 1500 R28/P2000 R29/P2000 BR SCT040 BKN100 15/12 Q1019 NOSIG =
14 Dehradun VIDN 141430Z 04003KT 3000 BR SCT030 11/10 Q1020=
15 Gauhati VEGT 141500Z 20003KT 3000 BR FEW020 SCT100 19/17 Q1016 NOSIG=
16 Gaya VEGY 141500Z 00000KT 1400 BR SCT100 19/17 Q1018 =
17 Goa VOGO 141500Z 36007KT 5000 HZ FEW220 27/22 Q1012 NOSIG =
18 Hyderabad VOHS 141500Z 12006KT 5000 HZ FEW015 21/18 Q1018 NOSIG=
19 Indore VAID 141500Z 02005KT 3000 HZ FEW025 SCT100 18/15 Q1018 NOSIG=
20 Jabalpur VAJB 141500Z 02010KT 2000 BR SCT020 19/18 Q1019=
21 Jaipur VIJP 141500Z 09003KT 1600 R27/2000 HZ SCT100 14/08 Q1019 BECMG 1500 BR=
22 Kochi VOCI 141500Z 04003KT 4000 BR FEW015 BKN080 25/24 Q1013 NOSIG=
23 Kolkata VECC 141500Z 00000KT 2200 BR FEW018 SCT100 21/20 Q1016 NOSIG=
24 Kozhikode VOCL 141500Z 27002KT 5000 HZ FEW015 SCT018 FEW025CB BKN080 25/23 Q1013 NOSIG=
25 Lucknow VILK 141500Z 00000KT 2500 BR SCT020 BKN100 17/15 Q1018 NOSIG=
26 Madurai VOMD 141500Z 33004KT 5000 BR SCT010 SCT016 FEW025CB BKN100 24/24 Q1015 NOSIG=
27 Mumbai VABB 141500Z 09008KT 3000 HZ FEW100 26/19 Q1014 NOSIG=
28 Nagpur VANP 141500Z 09002KT 3000 HZ SCT100 22/19 Q1017 NOSIG=
29 Patna VEPT 141500Z 00000KT 2500 BR SCT018 BKN100 20/19 Q1017 NOSIG=
30 Pathankot VIPK 141430Z 02004KT 6000 FEW030 SCT250 10/09 Q1022 NOSIG=
31 Raipur VERP 141500Z 02003KT 4000 HZ FEW020 SCT100 24/17 Q1017 NOSIG=
32 Surat VASU 141430Z 34006KT 5000 HZ NSC 23/15 Q1015 NOSIG=
33 Ranchi VERC 141500Z 00000KT 2000 HZ SCT018 BKN100 19/16 Q1020 NOSIG=
34 Trichy VOTR 141500Z 05006KT 3000 BR SCT016 FEW025CB BKN100 24/23 Q1015 BECMG 4000 BR=
35 Trivandrum VOTV 141500Z 04003KT 3000 BR SCT015 SCT080 FEW025TCU 26/25 Q1013 NOSIG=
36 Udaipur VAUD 141400Z 00000KT 2000 HZ FEW100 16/11 Q1019 NOSIG=
37 Varanasi VEBN 141500Z 00000KT 3000 BR FEW100 19/16 Q1017 NOSIG=
38 Vizag VOVZ 141500Z VRB02KT 3500 BR FEW018 24/22 Q1016 NOSIG =
39 Male VRMM 141500Z 04006KT 9999 SCT017TCU BKN260 28/24 Q1012 TEMPO 5000 -SHRA FEW018CB=
40 Gan VRMG 141500Z 00000KT 9999 SCT017TCU BKN100 26/25 Q1012 TEMPO 5000 -TSRA=
41 Kathmandu VNKT 141500Z NIL=
42 Dhaka VGHS 141500Z 00000KT 3500 HZ NSC 21/15 Q1016 NOSIG=
43 Colombo VCBI 141440Z 03004KT 9000 VCTS SCT017 FEW019CB 28/26 Q1012 NOSIG RMK S=
44 Karachi OPKC 141500Z 24004KT 5000 HZ NSC 20/12 Q1019 NOSIG=
45 Lahore OPLA 141455Z 00000KT 3000 FU BKN100 13/09 Q1022 BECMG 2500 BR RMK QFE996 RMK A30.17=
46 Leh VILH 141430Z VRB02KT 6000 SCT050 BKN090 -4/-8 Q1020 NOSIG=
47 Sri Nagar VISR 141430Z 00000KT 1500 BR SCT015 SCT025 BKN090 02/02 Q1024 TEMPO -RA=
48 Jammu VIJU 141430Z 33003KT 6000 FEW030 SCT100 11/09 Q1021 NOSIG=
49 Jodhpur VIJO 141430Z 04003KT 6000 SKC 16/06 Q1020 NOSIG=
50 Jaisalmer VIJR 141430Z 02006KT 6000 FEW120 18/05 Q1020 NOSIG=
51 Bhuj-Rudra VABJ 141430Z 00000KT 6000 SKC 16/07 Q1019 NOSIG=
52 Gorakhpur VEGK 141430Z 00000KT 4000 BR FEW100 15/15 Q1018 NOSIG=
53 Agra VIAG 141430Z VRB02KT 1000 BR FEW025 SCT100 12/12 Q1019 BECMG 0800 FG=
54 Bagdogra VEBD 141430Z VRB01KT 6000 FEW250 14/12 Q1017 NOSIG=
55 Gwalior VIGR 141430Z 29004KT 2200 BR FEW030 SCT090 14/13 Q1020 NOSIG=
56 Pune VAPO 141430Z VRB02KT 6000 FEW250 22/16 Q1017 NOISG=
57 Chandigarh VICG 141430Z 34005KT 5000 BR FEW025 BKN250 15/15 Q1021 NOSIG=
58 Jamnagar VAJM 141430Z VRB02KT 6000 SKC 21/14 Q1016 NOSIG=

 

--- End of List ---